createdAt,value
2023-03-17T00:00:29.862Z,100688.54
2023-03-17T00:01:31.964Z,100687.64
2023-03-17T00:02:33.835Z,100684.17
2023-03-17T00:03:35.606Z,100687.63
2023-03-17T00:04:37.510Z,100685.03
2023-03-17T00:05:39.325Z,100690.23
2023-03-17T00:06:41.137Z,100691.13
2023-03-17T00:07:42.990Z,100685.03
2023-03-17T00:08:45.017Z,100696.32
2023-03-17T00:09:47.081Z,100693.72
2023-03-17T00:10:49.015Z,100699.80
2023-03-17T00:11:50.991Z,100697.20
2023-03-17T00:12:52.986Z,100699.81
2023-03-17T00:13:55.014Z,100700.67
2023-03-17T00:14:56.923Z,100708.48
2023-03-17T00:15:58.746Z,100702.42
2023-03-17T00:17:00.649Z,100705.89
2023-03-17T00:18:02.622Z,100708.50
2023-03-17T00:19:04.543Z,100714.59
2023-03-17T00:20:06.776Z,100710.23
2023-03-17T00:21:08.741Z,100711.07
2023-03-17T00:22:10.544Z,100705.87
2023-03-17T00:23:12.352Z,100710.20
2023-03-17T00:24:15.158Z,100706.75
2023-03-17T00:25:17.356Z,100708.47
2023-03-17T00:26:19.267Z,100709.34
2023-03-17T00:27:21.074Z,100709.34
2023-03-17T00:28:22.987Z,100714.54
2023-03-17T00:29:24.805Z,100710.20
2023-03-17T00:30:26.656Z,100710.20
2023-03-17T00:31:28.514Z,100711.94
2023-03-17T00:32:30.386Z,100719.75
2023-03-17T00:33:32.200Z,100714.54
2023-03-17T00:34:34.021Z,100713.64
2023-03-17T00:35:35.948Z,100720.59
2023-03-17T00:36:37.688Z,100716.23
2023-03-17T00:37:39.503Z,100716.23
2023-03-17T00:38:41.412Z,100717.98
2023-03-17T00:39:43.209Z,100721.42
2023-03-17T00:42:47.449Z,100719.72
2023-03-17T00:43:49.292Z,100719.70
2023-03-17T00:44:51.175Z,100721.41
2023-03-17T00:45:53.037Z,100728.36
2023-03-17T00:46:54.963Z,100724.89
2023-03-17T00:47:56.778Z,100730.96
2023-03-17T00:48:58.589Z,100726.61
2023-03-17T00:50:00.314Z,100728.34
2023-03-17T00:51:02.186Z,100733.55
2023-03-17T00:52:04.007Z,100731.80
2023-03-17T00:53:05.822Z,100728.33
2023-03-17T00:54:07.635Z,100736.98
2023-03-17T00:55:09.434Z,100734.38
2023-03-17T00:56:12.204Z,100733.52
2023-03-17T00:57:14.006Z,100736.13
2023-03-17T00:58:15.830Z,100738.72
2023-03-17T00:59:19.368Z,100732.61
2023-03-17T01:00:21.314Z,100731.75
2023-03-17T01:01:23.202Z,100734.34
2023-03-17T01:02:26.040Z,100736.92
2023-03-17T01:03:27.961Z,100739.52
2023-03-17T01:04:29.697Z,100739.52
2023-03-17T01:05:31.493Z,100737.77
2023-03-17T01:06:33.345Z,100737.77
2023-03-17T01:07:35.148Z,100737.78
2023-03-17T01:08:36.966Z,100729.13
2023-03-17T01:09:38.784Z,100731.75
2023-03-17T01:10:40.597Z,100733.50
2023-03-17T01:11:42.455Z,100733.52
2023-03-17T01:12:44.263Z,100733.52
2023-03-17T01:13:46.087Z,100738.72
2023-03-17T01:14:48.001Z,100738.72
2023-03-17T01:15:49.816Z,100734.38
2023-03-17T01:16:51.677Z,100733.52
2023-03-17T01:17:53.499Z,100730.93
2023-03-17T01:18:55.327Z,100731.80
2023-03-17T01:19:57.131Z,100739.61
2023-03-17T01:20:59.113Z,100738.75
2023-03-17T01:22:00.992Z,100748.30
2023-03-17T01:23:02.928Z,100742.20
2023-03-17T01:24:04.718Z,100750.02
2023-03-17T01:25:06.542Z,100749.15
2023-03-17T01:26:08.372Z,100749.15
2023-03-17T01:27:10.217Z,100745.69
2023-03-17T01:28:12.033Z,100754.35
2023-03-17T01:29:13.837Z,100745.67
2023-03-17T01:30:15.946Z,100750.89
2023-03-17T01:31:17.685Z,100749.13
2023-03-17T01:32:19.492Z,100755.20
2023-03-17T01:33:21.289Z,100760.42
2023-03-17T01:34:23.112Z,100751.75
2023-03-17T01:35:24.946Z,100757.80
2023-03-17T01:36:26.758Z,100754.34
2023-03-17T01:37:28.622Z,100756.95
2023-03-17T01:38:30.436Z,100755.22
2023-03-17T01:39:32.250Z,100755.22
2023-03-17T01:40:34.051Z,100755.19
2023-03-17T01:41:35.870Z,100751.70
2023-03-17T01:42:37.734Z,100757.75
2023-03-17T01:43:39.538Z,100755.16
2023-03-17T01:44:41.353Z,100759.50
2023-03-17T01:45:43.190Z,100761.22
2023-03-17T01:46:44.956Z,100761.22
2023-03-17T01:47:46.816Z,100762.96
2023-03-17T01:48:48.640Z,100762.96
2023-03-17T01:49:50.430Z,100764.69
2023-03-17T01:50:52.301Z,100766.39
2023-03-17T01:51:54.102Z,100761.19
2023-03-17T01:52:55.966Z,100767.30
2023-03-17T01:53:57.781Z,100769.02
2023-03-17T01:54:59.597Z,100770.77
2023-03-17T01:56:01.480Z,100768.15
2023-03-17T01:57:03.289Z,100767.30
2023-03-17T01:58:05.153Z,100771.61
2023-03-17T01:59:06.944Z,100771.61
2023-03-17T02:00:09.157Z,100763.81
2023-03-17T02:01:11.007Z,100767.30
2023-03-17T02:02:12.861Z,100766.41
2023-03-17T02:03:14.698Z,100765.55
2023-03-17T02:04:16.561Z,100774.22
2023-03-17T02:05:18.302Z,100775.09
2023-03-17T02:06:20.105Z,100774.20
2023-03-17T02:07:21.893Z,100772.47
2023-03-17T02:08:23.757Z,100772.45
2023-03-17T02:09:25.574Z,100775.92
2023-03-17T02:10:27.452Z,100772.44
2023-03-17T02:11:29.276Z,100776.75
2023-03-17T02:12:31.116Z,100775.91
2023-03-17T02:13:32.986Z,100781.11
2023-03-17T02:14:34.774Z,100776.75
2023-03-17T02:15:36.579Z,100779.34
2023-03-17T02:16:38.452Z,100776.73
2023-03-17T02:17:40.264Z,100772.41
2023-03-17T02:18:42.079Z,100775.86
2023-03-17T02:19:43.925Z,100778.45
2023-03-17T02:20:45.698Z,100781.92
2023-03-17T02:21:47.511Z,100782.81
2023-03-17T02:22:49.322Z,100789.71
2023-03-17T02:23:51.205Z,100782.80
2023-03-17T02:24:52.978Z,100786.27
2023-03-17T02:25:54.716Z,100784.50
2023-03-17T02:26:56.597Z,100789.71
2023-03-17T02:27:58.408Z,100788.00
2023-03-17T02:29:00.250Z,100791.45
2023-03-17T02:30:02.045Z,100798.39
2023-03-17T02:31:03.899Z,100791.41
2023-03-17T02:32:05.772Z,100797.48
2023-03-17T02:33:07.669Z,100795.77
2023-03-17T02:34:09.496Z,100793.16
2023-03-17T02:35:11.311Z,100798.36
2023-03-17T02:36:13.416Z,100801.82
2023-03-17T02:37:15.204Z,100805.28
2023-03-17T02:38:17.019Z,100802.69
2023-03-17T02:39:18.921Z,100807.00
2023-03-17T02:40:20.733Z,100798.32
2023-03-17T02:41:22.593Z,100800.88
2023-03-17T02:42:24.403Z,100799.13
2023-03-17T02:43:26.215Z,100802.59
2023-03-17T02:44:28.336Z,100802.59
2023-03-17T02:45:30.244Z,100800.85
2023-03-17T02:46:32.116Z,100798.27
2023-03-17T02:47:33.875Z,100797.41
2023-03-17T02:48:35.717Z,100799.16
2023-03-17T02:49:37.533Z,100792.19
2023-03-17T02:50:39.329Z,100787.83
2023-03-17T02:51:41.138Z,100791.27
2023-03-17T02:52:42.950Z,100789.52
2023-03-17T02:53:44.794Z,100794.72
2023-03-17T02:54:46.640Z,100792.09
2023-03-17T02:55:48.448Z,100797.28
2023-03-17T02:56:50.257Z,100799.03
2023-03-17T02:57:52.076Z,100798.18
2023-03-17T02:58:53.870Z,100790.39
2023-03-17T02:59:55.720Z,100796.52
2023-03-17T03:00:57.633Z,100794.77
2023-03-17T03:01:59.446Z,100796.52
2023-03-17T03:03:01.261Z,100800.80
2023-03-17T03:04:03.046Z,100795.62
2023-03-17T03:05:04.889Z,100804.33
2023-03-17T03:06:06.800Z,100806.06
2023-03-17T03:07:08.596Z,100808.73
2023-03-17T03:08:10.396Z,100809.59
2023-03-17T03:09:12.214Z,100812.21
2023-03-17T03:10:15.555Z,100807.02
2023-03-17T03:11:17.350Z,100807.04
2023-03-17T03:12:19.174Z,100809.64
2023-03-17T03:13:20.895Z,100807.91
2023-03-17T03:14:22.691Z,100811.41
2023-03-17T03:15:24.558Z,100811.41
2023-03-17T03:16:26.357Z,100810.50
2023-03-17T03:17:31.376Z,100813.11
2023-03-17T03:18:33.249Z,100814.02
2023-03-17T03:19:35.051Z,100815.75
2023-03-17T03:20:36.913Z,100813.11
2023-03-17T03:21:38.822Z,100813.97
2023-03-17T03:22:40.620Z,100820.02
2023-03-17T03:23:42.419Z,100819.16
2023-03-17T03:24:44.242Z,100820.86
2023-03-17T03:25:46.100Z,100816.55
2023-03-17T03:26:47.897Z,100823.48
2023-03-17T03:27:49.696Z,100816.53
2023-03-17T03:28:51.526Z,100821.77
2023-03-17T03:29:53.351Z,100823.50
2023-03-17T03:30:55.219Z,100818.30
2023-03-17T03:31:57.028Z,100827.86
2023-03-17T03:32:58.867Z,100820.05
2023-03-17T03:34:00.708Z,100819.20
2023-03-17T03:35:02.518Z,100824.41
2023-03-17T03:36:04.391Z,100826.12
2023-03-17T03:37:06.166Z,100822.66
2023-03-17T03:38:07.978Z,100823.52
2023-03-17T03:39:09.702Z,100822.66
2023-03-17T03:40:11.787Z,100825.23
2023-03-17T03:41:13.617Z,100826.98
2023-03-17T03:42:15.422Z,100824.39
2023-03-17T03:43:23.253Z,100822.66
2023-03-17T03:44:20.851Z,100825.27
2023-03-17T03:45:22.679Z,100826.16
2023-03-17T03:46:24.549Z,100832.23
2023-03-17T03:47:26.342Z,100841.78
2023-03-17T03:48:28.157Z,100836.58
2023-03-17T03:49:29.968Z,100839.18
2023-03-17T03:50:32.105Z,100843.55
2023-03-17T03:51:34.155Z,100840.94
2023-03-17T03:52:35.968Z,100844.41
2023-03-17T03:53:37.766Z,100847.91
2023-03-17T03:54:39.572Z,100843.56
2023-03-17T03:55:41.688Z,100840.95
2023-03-17T03:56:43.592Z,100842.72
2023-03-17T03:57:45.406Z,100854.84
2023-03-17T03:58:47.193Z,100847.05
2023-03-17T03:59:49.022Z,100846.18
2023-03-17T04:00:50.851Z,100848.78
2023-03-17T04:01:52.680Z,100853.13
2023-03-17T04:02:54.509Z,100857.43
2023-03-17T04:03:56.417Z,100860.03
2023-03-17T04:04:58.257Z,100859.17
2023-03-17T04:06:00.036Z,100859.17
2023-03-17T04:07:01.882Z,100860.91
2023-03-17T04:08:03.691Z,100860.02
2023-03-17T04:09:05.575Z,100862.62
2023-03-17T04:10:07.595Z,100867.82
2023-03-17T04:11:09.408Z,100863.50
2023-03-17T04:12:11.253Z,100869.55
2023-03-17T04:13:13.072Z,100864.34
2023-03-17T04:14:14.876Z,100872.13
2023-03-17T04:15:16.684Z,100874.73
2023-03-17T04:16:18.501Z,100872.13
2023-03-17T04:17:20.335Z,100877.33
2023-03-17T04:18:22.156Z,100875.57
2023-03-17T04:19:23.970Z,100876.47
2023-03-17T04:20:25.876Z,100879.95
2023-03-17T04:21:27.698Z,100877.33
2023-03-17T04:22:29.567Z,100868.66
2023-03-17T04:23:31.376Z,100877.33
2023-03-17T04:24:33.178Z,100874.73
2023-03-17T04:25:34.991Z,100877.33
2023-03-17T04:26:36.807Z,100865.16
2023-03-17T04:27:38.657Z,100870.37
2023-03-17T04:28:40.475Z,100869.52
2023-03-17T04:29:42.277Z,100871.27
2023-03-17T04:30:44.090Z,100875.57
2023-03-17T04:31:45.993Z,100875.57
2023-03-17T04:32:47.859Z,100871.27
2023-03-17T04:33:49.656Z,100881.67
2023-03-17T04:34:51.468Z,100878.17
2023-03-17T04:35:53.339Z,100876.47
2023-03-17T04:36:55.503Z,100884.27
2023-03-17T04:37:57.342Z,100872.97
2023-03-17T04:38:59.153Z,100878.17
2023-03-17T04:40:00.955Z,100882.52
2023-03-17T04:41:02.772Z,100885.14
2023-03-17T04:42:04.575Z,100879.93
2023-03-17T04:43:06.422Z,100879.95
2023-03-17T04:44:08.238Z,100886.03
2023-03-17T04:45:10.041Z,100886.91
2023-03-17T04:46:12.365Z,100886.94
2023-03-17T04:47:14.184Z,100890.40
2023-03-17T04:48:16.040Z,100888.62
2023-03-17T04:49:17.852Z,100892.04
2023-03-17T04:50:19.788Z,100891.98
2023-03-17T04:51:21.674Z,100889.30
2023-03-17T04:52:23.455Z,100893.64
2023-03-17T04:53:25.294Z,100895.38
2023-03-17T04:54:27.015Z,100897.11
2023-03-17T04:55:28.868Z,100899.73
2023-03-17T04:56:32.008Z,100897.13
2023-03-17T04:57:34.191Z,100897.06
2023-03-17T04:58:36.031Z,100893.63
2023-03-17T04:59:37.848Z,100900.52
2023-03-17T05:00:39.882Z,100890.09
2023-03-17T05:01:41.703Z,100895.30
2023-03-17T05:02:43.511Z,100903.10
2023-03-17T05:03:45.375Z,100897.00
2023-03-17T05:04:47.178Z,100906.56
2023-03-17T05:05:48.986Z,100903.10
2023-03-17T05:06:50.839Z,100906.56
2023-03-17T05:07:52.646Z,100906.59
2023-03-17T05:08:54.487Z,100902.23
2023-03-17T05:09:56.312Z,100901.34
2023-03-17T05:10:58.112Z,100902.16
2023-03-17T05:11:59.918Z,100903.90
2023-03-17T05:13:01.733Z,100904.78
2023-03-17T05:14:03.602Z,100907.41
2023-03-17T05:15:05.448Z,100902.23
2023-03-17T05:16:07.807Z,100904.83
2023-03-17T05:17:09.807Z,100903.12
2023-03-17T05:18:11.592Z,100901.38
2023-03-17T05:19:13.342Z,100900.54
2023-03-17T05:20:15.278Z,100906.61
2023-03-17T05:21:17.116Z,100908.33
2023-03-17T05:22:18.915Z,100901.34
2023-03-17T05:23:20.735Z,100900.48
2023-03-17T05:24:22.574Z,100908.30
2023-03-17T05:25:24.438Z,100910.03
2023-03-17T05:26:26.261Z,100910.95
2023-03-17T05:27:28.069Z,100911.83
2023-03-17T05:28:29.877Z,100907.49
2023-03-17T05:29:31.740Z,100913.59
2023-03-17T05:30:34.124Z,100914.44
2023-03-17T05:31:36.177Z,100919.59
2023-03-17T05:32:38.116Z,100920.44
2023-03-17T05:33:40.046Z,100917.83
2023-03-17T05:34:41.892Z,100919.59
2023-03-17T05:35:43.726Z,100921.33
2023-03-17T05:36:45.523Z,100920.45
2023-03-17T05:37:47.357Z,100929.17
2023-03-17T05:38:49.178Z,100925.68
2023-03-17T05:39:51.063Z,100923.98
2023-03-17T05:40:52.879Z,100928.33
2023-03-17T05:41:54.664Z,100925.72
2023-03-17T05:42:56.453Z,100928.34
2023-03-17T05:43:58.276Z,100935.31
2023-03-17T05:45:00.179Z,100933.55
2023-03-17T05:46:02.075Z,100935.31
2023-03-17T05:47:03.870Z,100934.47
2023-03-17T05:48:05.699Z,100931.86
2023-03-17T05:49:07.528Z,100931.89
2023-03-17T05:50:09.370Z,100931.89
2023-03-17T05:51:11.175Z,100933.64
2023-03-17T05:52:12.987Z,100937.11
2023-03-17T05:53:14.800Z,100933.64
2023-03-17T05:54:16.731Z,100939.71
2023-03-17T05:55:18.503Z,100943.17
2023-03-17T05:56:20.413Z,100932.80
2023-03-17T05:57:22.123Z,100937.99
2023-03-17T05:58:23.928Z,100933.67
2023-03-17T05:59:25.734Z,100933.67
2023-03-17T06:00:27.716Z,100936.27
2023-03-17T06:01:29.530Z,100938.87
2023-03-17T06:02:31.350Z,100940.59
2023-03-17T06:03:33.319Z,100941.49
2023-03-17T06:04:35.251Z,100940.62
2023-03-17T06:05:37.113Z,100938.94
2023-03-17T06:06:38.917Z,100943.27
2023-03-17T06:07:51.166Z,100945.86
2023-03-17T06:08:44.359Z,100943.28
2023-03-17T06:09:46.178Z,100945.91
2023-03-17T06:10:48.066Z,100941.59
2023-03-17T06:11:49.786Z,100939.00
2023-03-17T06:12:51.616Z,100938.97
2023-03-17T06:13:53.418Z,100940.66
2023-03-17T06:14:55.234Z,100951.96
2023-03-17T06:15:57.190Z,100951.91
2023-03-17T06:16:58.996Z,100950.09
2023-03-17T06:18:00.811Z,100950.03
2023-03-17T06:19:02.788Z,100951.73
2023-03-17T06:20:04.600Z,100954.34
2023-03-17T06:21:06.434Z,100956.96
2023-03-17T06:22:08.267Z,100953.50
2023-03-17T06:23:10.089Z,100950.88
2023-03-17T06:24:11.917Z,100952.61
2023-03-17T06:25:13.718Z,100953.47
2023-03-17T06:26:15.760Z,100961.28
2023-03-17T06:27:17.575Z,100962.14
2023-03-17T06:28:19.388Z,100956.94
2023-03-17T06:29:21.177Z,100960.44
2023-03-17T06:30:22.985Z,100963.06
2023-03-17T06:31:24.962Z,100963.06
2023-03-17T06:32:26.925Z,100965.69
2023-03-17T06:33:28.677Z,100963.95
2023-03-17T06:34:30.479Z,100963.97
2023-03-17T06:35:32.537Z,100965.73
2023-03-17T06:36:36.397Z,100965.75
2023-03-17T06:37:38.254Z,100960.55
2023-03-17T06:38:40.035Z,100964.91
2023-03-17T06:39:42.008Z,100964.91
2023-03-17T06:40:43.935Z,100965.75
2023-03-17T06:41:45.764Z,100970.94
2023-03-17T06:42:47.592Z,100975.25
2023-03-17T06:43:49.485Z,100968.31
2023-03-17T06:44:51.348Z,100966.53
2023-03-17T06:45:53.137Z,100975.16
2023-03-17T06:46:55.116Z,100969.08
2023-03-17T06:47:57.012Z,100966.46
2023-03-17T06:48:58.841Z,100976.84
2023-03-17T06:50:00.659Z,100971.66
2023-03-17T06:51:02.450Z,100976.80
2023-03-17T06:52:04.387Z,100975.94
2023-03-17T06:53:06.208Z,100975.95
2023-03-17T06:54:08.045Z,100977.69
2023-03-17T06:55:09.866Z,100982.05
2023-03-17T06:56:23.489Z,100987.27
2023-03-17T06:57:15.536Z,100982.09
2023-03-17T06:58:17.370Z,100985.58
2023-03-17T06:59:19.250Z,100985.63
2023-03-17T07:00:21.192Z,100987.36
2023-03-17T07:01:23.191Z,100989.97
2023-03-17T07:02:25.121Z,100985.66
2023-03-17T07:03:26.946Z,100980.44
2023-03-17T07:04:28.830Z,100979.53
2023-03-17T07:05:30.965Z,100988.23
2023-03-17T07:06:33.022Z,100987.36
2023-03-17T07:07:34.900Z,100987.34
2023-03-17T07:08:36.720Z,100993.44
2023-03-17T07:09:38.520Z,100989.94
2023-03-17T07:10:40.355Z,100993.46
2023-03-17T07:11:42.318Z,100992.61
2023-03-17T07:12:44.176Z,100989.17
2023-03-17T07:13:46.062Z,100992.66
2023-03-17T07:14:47.915Z,100994.44
2023-03-17T07:15:49.813Z,100993.59
2023-03-17T07:16:51.671Z,100989.26
2023-03-17T07:17:53.534Z,100993.59
2023-03-17T07:18:55.341Z,100995.30
2023-03-17T07:19:57.171Z,100997.04
2023-03-17T07:20:58.973Z,100998.80
2023-03-17T07:22:00.828Z,101000.53
2023-03-17T07:23:02.724Z,100995.33
2023-03-17T07:24:04.575Z,101004.89
2023-03-17T07:25:06.374Z,101007.52
2023-03-17T07:26:08.169Z,101008.38
2023-03-17T07:27:10.009Z,101004.94
2023-03-17T07:28:11.868Z,101009.28
2023-03-17T07:29:13.621Z,101011.88
2023-03-17T07:30:15.443Z,101002.31
2023-03-17T07:31:17.315Z,101004.03
2023-03-17T07:32:19.367Z,101005.75
2023-03-17T07:34:37.255Z,100999.86
2023-03-17T07:35:39.136Z,101010.16
2023-03-17T07:36:40.965Z,101013.63
2023-03-17T07:37:42.806Z,101001.53
2023-03-17T07:38:44.653Z,101005.05
2023-03-17T07:39:46.474Z,101005.97
2023-03-17T07:40:48.303Z,101007.69
2023-03-17T07:41:50.131Z,101007.69
2023-03-17T07:42:51.939Z,101004.22
2023-03-17T07:43:53.838Z,101009.41
2023-03-17T07:44:55.686Z,101007.64
2023-03-17T07:45:57.562Z,101011.98
2023-03-17T07:46:59.353Z,101006.77
2023-03-17T07:48:01.159Z,101008.47
2023-03-17T07:49:03.010Z,101005.92
2023-03-17T07:50:04.939Z,101008.56
2023-03-17T07:51:06.752Z,101011.21
2023-03-17T07:52:08.635Z,101006.89
2023-03-17T07:53:10.478Z,101009.52
2023-03-17T07:54:14.914Z,101014.74
2023-03-17T07:55:16.115Z,101009.53
2023-03-17T07:56:17.893Z,101013.02
2023-03-17T07:57:19.802Z,101012.18
2023-03-17T07:58:21.704Z,101019.15
2023-03-17T07:59:23.592Z,101009.59
2023-03-17T08:00:25.596Z,101015.69
2023-03-17T08:01:27.417Z,101014.00
2023-03-17T08:02:29.374Z,101011.40
2023-03-17T08:03:31.218Z,101010.58
2023-03-17T08:04:33.205Z,101012.30
2023-03-17T08:05:35.030Z,101015.83
2023-03-17T08:06:36.819Z,101021.90
2023-03-17T08:07:38.650Z,101021.05
2023-03-17T08:08:40.470Z,101020.17
2023-03-17T08:09:42.308Z,101021.94
2023-03-17T08:10:44.251Z,101021.09
2023-03-17T08:11:46.029Z,101027.16
2023-03-17T08:12:47.872Z,101022.82
2023-03-17T08:13:49.679Z,101022.84
2023-03-17T08:14:51.700Z,101010.72
2023-03-17T08:15:53.538Z,101022.02
2023-03-17T08:16:55.358Z,101014.23
2023-03-17T08:17:57.248Z,101014.23
2023-03-17T08:18:59.094Z,101017.73
2023-03-17T08:20:00.941Z,101019.52
2023-03-17T08:21:02.765Z,101021.27
2023-03-17T08:22:04.618Z,101021.29
2023-03-17T08:23:06.413Z,101023.91
2023-03-17T08:24:08.187Z,101023.94
2023-03-17T08:25:10.092Z,101022.19
2023-03-17T08:26:12.221Z,101027.42
2023-03-17T08:27:14.036Z,101024.83
2023-03-17T08:28:15.853Z,101024.83
2023-03-17T08:29:17.671Z,101022.25
2023-03-17T08:30:19.517Z,101030.08
2023-03-17T08:31:21.456Z,101024.89
2023-03-17T08:32:23.288Z,101028.39
2023-03-17T08:33:25.152Z,101030.12
2023-03-17T08:34:26.942Z,101037.09
2023-03-17T08:35:29.235Z,101027.53
2023-03-17T08:36:31.417Z,101042.34
2023-03-17T08:37:34.252Z,101042.38
2023-03-17T08:38:36.086Z,101029.34
2023-03-17T08:39:37.903Z,101039.78
2023-03-17T08:40:39.769Z,101041.55
2023-03-17T08:41:41.634Z,101042.41
2023-03-17T08:42:43.498Z,101045.91
2023-03-17T08:43:45.406Z,101038.98
2023-03-17T08:44:47.239Z,101038.98
2023-03-17T08:45:49.123Z,101032.00
2023-03-17T08:46:51.051Z,101034.61
2023-03-17T08:47:52.856Z,101035.51
2023-03-17T08:48:54.675Z,101031.16
2023-03-17T08:49:56.484Z,101033.77
2023-03-17T08:50:58.332Z,101030.31
2023-03-17T08:52:00.159Z,101046.80
2023-03-17T08:53:01.967Z,101040.73
2023-03-17T08:54:03.785Z,101032.92
2023-03-17T08:55:05.597Z,101036.39
2023-03-17T08:56:07.566Z,101042.46
2023-03-17T08:57:09.400Z,101031.20
2023-03-17T08:58:11.219Z,101035.55
2023-03-17T08:59:13.166Z,101033.80
2023-03-17T09:00:15.911Z,101039.03
2023-03-17T09:01:17.823Z,101034.68
2023-03-17T09:02:19.643Z,101021.60
2023-03-17T09:03:21.560Z,101037.30
2023-03-17T09:04:23.430Z,101031.23
2023-03-17T09:05:25.232Z,101028.62
2023-03-17T09:06:27.080Z,101034.68
2023-03-17T09:07:28.903Z,101029.47
2023-03-17T09:08:30.812Z,101026.02
2023-03-17T09:09:32.638Z,101028.64
2023-03-17T09:10:34.537Z,101033.01
2023-03-17T09:11:36.394Z,101031.28
2023-03-17T09:12:38.235Z,101032.16
2023-03-17T09:13:40.006Z,101029.54
2023-03-17T09:14:44.211Z,101030.42
2023-03-17T09:15:45.455Z,101038.20
2023-03-17T09:16:47.292Z,101028.62
2023-03-17T09:17:49.122Z,101028.62
2023-03-17T09:18:50.924Z,101032.02
2023-03-17T09:19:52.725Z,101036.33
2023-03-17T09:20:54.693Z,101026.76
2023-03-17T09:21:56.533Z,101039.78
2023-03-17T09:22:58.375Z,101040.63
2023-03-17T09:24:02.370Z,101029.29
2023-03-17T09:25:03.809Z,101037.94
2023-03-17T09:26:05.610Z,101037.88
2023-03-17T09:27:07.489Z,101032.66
2023-03-17T09:28:09.380Z,101035.25
2023-03-17T09:29:11.176Z,101038.72
2023-03-17T09:30:12.980Z,101034.35
2023-03-17T09:31:14.857Z,101043.03
2023-03-17T09:32:16.702Z,101042.19
2023-03-17T09:33:18.490Z,101044.79
2023-03-17T09:34:20.326Z,101051.73
2023-03-17T09:35:22.172Z,101049.02
2023-03-17T09:36:24.176Z,101054.15
2023-03-17T09:37:26.029Z,101056.72
2023-03-17T09:38:27.986Z,101054.98
2023-03-17T09:39:29.988Z,101066.24
2023-03-17T09:40:32.124Z,101058.43
2023-03-17T09:41:34.028Z,101068.87
2023-03-17T09:42:35.925Z,101068.00
2023-03-17T09:43:37.667Z,101073.22
2023-03-17T09:44:39.460Z,101072.30
2023-03-17T09:45:43.558Z,101073.17
2023-03-17T09:46:44.863Z,101076.64
2023-03-17T09:47:46.691Z,101076.62
2023-03-17T09:48:48.492Z,101071.44
2023-03-17T09:49:50.294Z,101074.06
2023-03-17T09:50:52.103Z,101079.28
2023-03-17T09:51:53.930Z,101081.93
2023-03-17T09:52:55.808Z,101086.31
2023-03-17T09:53:57.605Z,101081.11
2023-03-17T09:54:59.404Z,101088.98
2023-03-17T09:56:01.228Z,101086.38
2023-03-17T09:57:03.063Z,101082.94
2023-03-17T09:58:04.896Z,101085.58
2023-03-17T09:59:06.725Z,101081.23
2023-03-17T10:00:08.644Z,101082.97
2023-03-17T10:01:10.478Z,101086.47
2023-03-17T10:02:12.317Z,101080.45
2023-03-17T10:03:14.115Z,101085.68
2023-03-17T10:04:18.677Z,101086.55
2023-03-17T10:05:19.645Z,101092.58
2023-03-17T10:06:21.771Z,101090.83
2023-03-17T10:07:23.568Z,101094.26
2023-03-17T10:08:31.514Z,101087.31
2023-03-17T10:09:29.041Z,101088.20
2023-03-17T10:10:31.089Z,101089.95
2023-03-17T10:11:33.024Z,101089.97
2023-03-17T10:12:34.817Z,101086.53
2023-03-17T10:13:36.667Z,101089.12
2023-03-17T10:14:38.481Z,101085.64
2023-03-17T10:15:40.295Z,101089.05
2023-03-17T10:16:42.116Z,101086.42
2023-03-17T10:17:43.941Z,101086.42
2023-03-17T10:18:45.873Z,101094.23
2023-03-17T10:19:47.674Z,101087.29
2023-03-17T10:20:51.541Z,101088.09
2023-03-17T10:21:53.117Z,101093.30
2023-03-17T10:22:54.923Z,101083.76
2023-03-17T10:23:56.790Z,101092.44
2023-03-17T10:24:58.632Z,101095.06
2023-03-17T10:26:00.432Z,101095.08
2023-03-17T10:27:02.228Z,101096.02
2023-03-17T10:28:04.732Z,101096.91
2023-03-17T10:29:07.723Z,101097.77
2023-03-17T10:30:09.943Z,101098.66
2023-03-17T10:31:11.804Z,101104.72
2023-03-17T10:32:13.616Z,101102.05
2023-03-17T10:33:15.418Z,101108.92
2023-03-17T10:34:17.269Z,101101.02
2023-03-17T10:35:19.077Z,101103.62
2023-03-17T10:36:20.885Z,101100.16
2023-03-17T10:37:22.689Z,101108.84
2023-03-17T10:38:24.536Z,101106.23
2023-03-17T10:39:26.414Z,101101.91
2023-03-17T10:40:28.546Z,101104.51
2023-03-17T10:41:30.480Z,101101.05
2023-03-17T10:42:32.273Z,101103.67
2023-03-17T10:43:34.077Z,101096.73
2023-03-17T10:44:35.956Z,101102.81
2023-03-17T10:45:39.268Z,101095.84
2023-03-17T10:46:41.399Z,101099.38
2023-03-17T10:47:43.185Z,101102.03
2023-03-17T10:48:44.997Z,101102.07
2023-03-17T10:49:46.851Z,101103.88
2023-03-17T10:50:49.688Z,101102.13
2023-03-17T10:51:51.606Z,101097.77
2023-03-17T10:52:53.409Z,101098.64
2023-03-17T10:53:55.221Z,101093.44
2023-03-17T10:54:57.101Z,101102.09
2023-03-17T10:55:58.884Z,101101.20
2023-03-17T10:57:00.785Z,101093.38
2023-03-17T10:58:02.615Z,101097.66
2023-03-17T10:59:04.397Z,101100.31
2023-03-17T11:00:06.387Z,101099.45
2023-03-17T11:01:08.381Z,101110.69
2023-03-17T11:02:10.362Z,101104.61
2023-03-17T11:03:12.158Z,101103.72
2023-03-17T11:04:14.022Z,101108.98
2023-03-17T11:05:15.907Z,101106.30
2023-03-17T11:06:17.759Z,101108.02
2023-03-17T11:07:19.586Z,101098.47
2023-03-17T11:08:21.398Z,101108.02
2023-03-17T11:09:23.238Z,101110.63
2023-03-17T11:10:25.104Z,101108.06
2023-03-17T11:11:26.787Z,101118.52
2023-03-17T11:12:28.607Z,101114.25
2023-03-17T11:13:30.479Z,101118.59
2023-03-17T11:14:32.260Z,101113.39
2023-03-17T11:15:34.106Z,101120.34
2023-03-17T11:16:35.950Z,101119.44
2023-03-17T11:17:37.819Z,101116.84
2023-03-17T11:18:39.623Z,101125.53
2023-03-17T11:19:41.439Z,101119.48
2023-03-17T11:20:43.304Z,101128.19
2023-03-17T11:21:45.096Z,101121.21
2023-03-17T11:22:46.892Z,101121.19
2023-03-17T11:23:48.718Z,101120.34
2023-03-17T11:24:50.533Z,101121.23
2023-03-17T11:25:52.390Z,101121.23
2023-03-17T11:26:54.178Z,101123.81
2023-03-17T11:27:56.017Z,101120.34
2023-03-17T11:28:57.819Z,101122.93
2023-03-17T11:29:59.631Z,101122.95
2023-03-17T11:31:01.499Z,101122.95
2023-03-17T11:32:03.391Z,101129.03
2023-03-17T11:33:05.289Z,101126.42
2023-03-17T11:34:07.221Z,101122.06
2023-03-17T11:35:09.011Z,101118.52
2023-03-17T11:36:11.398Z,101131.52
2023-03-17T11:37:13.211Z,101122.00
2023-03-17T11:38:15.014Z,101128.03
2023-03-17T11:39:16.826Z,101127.09
2023-03-17T11:40:18.647Z,101125.34
2023-03-17T11:41:20.530Z,101127.05
2023-03-17T11:42:22.325Z,101121.84
2023-03-17T11:43:24.124Z,101121.80
2023-03-17T11:44:25.947Z,101124.42
2023-03-17T11:45:27.764Z,101127.00
2023-03-17T11:46:29.636Z,101122.69
2023-03-17T11:47:31.398Z,101120.09
2023-03-17T11:48:33.233Z,101113.87
2023-03-17T11:49:35.023Z,101128.72